Orbital elements of MICROSCOPE
| Launched | 24 April 2016 |
| Flight ended | – |
| Launch site | Europe's Spaceport, Kourou, French Guiana |
| Owner | France |
| NORAD ID | 41457 |
| Date fetched |
Epoch osculation |
Inc. [°] |
Ecc. | RA asc node [hr] |
Arg Peri. [°] |
Mean anom [°] |
Mean motion [rev/day] |
Abs. mag |
| Date fetched |
Epoch osculation |
Inc. [°] |
Ecc. | RA asc node [hr] |
Arg Peri. [°] |
Mean anom [°] |
Mean motion [rev/day] |
Abs. mag |
| 2026 May 04 17:57 | 2026 Apr 30 14:27:15 | 98.2463 | 0.00014 | 8.9035 | 73.0176 | 287.1174 | 14.59508 | – |
| 2026 May 03 17:57 | 2026 Apr 30 14:27:15 | 98.2463 | 0.00014 | 8.9035 | 73.0176 | 287.1174 | 14.59508 | – |
| 2026 May 02 17:57 | 2026 Apr 30 14:27:15 | 98.2463 | 0.00014 | 8.9035 | 73.0176 | 287.1174 | 14.59508 | – |
| 2026 May 01 17:56 | 2026 Apr 30 14:27:15 | 98.2463 | 0.00014 | 8.9035 | 73.0176 | 287.1174 | 14.59508 | – |
| 2026 Apr 30 17:56 | 2026 Apr 30 14:27:15 | 98.2463 | 0.00014 | 8.9035 | 73.0176 | 287.1174 | 14.59508 | – |
| 2026 Apr 29 17:57 | 2026 Apr 24 12:00:59 | 98.2468 | 0.00015 | 8.4991 | 75.3251 | 287.1174 | 14.59508 | – |
| 2026 Apr 28 17:56 | 2026 Apr 24 12:00:59 | 98.2468 | 0.00015 | 8.4991 | 75.3251 | 287.1174 | 14.59508 | – |
| 2026 Apr 27 17:58 | 2026 Apr 24 12:00:59 | 98.2468 | 0.00015 | 8.4991 | 75.3251 | 287.1174 | 14.59508 | – |
| 2026 Apr 26 17:58 | 2026 Apr 24 12:00:59 | 98.2468 | 0.00015 | 8.4991 | 75.3251 | 287.1174 | 14.59508 | – |
| 2026 Apr 25 17:58 | 2026 Apr 24 12:00:59 | 98.2468 | 0.00015 | 8.4991 | 75.3251 | 287.1174 | 14.59508 | – |
| 2026 Apr 24 17:59 | 2026 Apr 24 12:00:59 | 98.2468 | 0.00015 | 8.4991 | 75.3251 | 287.1174 | 14.59508 | – |
| 2026 Apr 23 17:57 | 2026 Apr 19 11:54:13 | 98.2473 | 0.00016 | 8.1675 | 76.9228 | 287.1174 | 14.59508 | – |
| 2026 Apr 22 17:57 | 2026 Apr 19 11:54:13 | 98.2473 | 0.00016 | 8.1675 | 76.9228 | 287.1174 | 14.59508 | – |
| 2026 Apr 21 17:57 | 2026 Apr 19 11:54:13 | 98.2473 | 0.00016 | 8.1675 | 76.9228 | 287.1174 | 14.59508 | – |
| 2026 Apr 20 17:57 | 2026 Apr 19 11:54:13 | 98.2473 | 0.00016 | 8.1675 | 76.9228 | 287.1174 | 14.59508 | – |
| 2026 Apr 19 17:58 | 2026 Apr 19 11:54:13 | 98.2473 | 0.00016 | 8.1675 | 76.9228 | 287.1174 | 14.59508 | – |
| 2026 Apr 18 17:56 | 2026 Apr 12 23:35:30 | 98.2477 | 0.00017 | 7.7358 | 80.0718 | 287.1174 | 14.59508 | – |
| 2026 Apr 16 17:57 | 2026 Apr 12 23:35:30 | 98.2477 | 0.00017 | 7.7358 | 80.0718 | 287.1174 | 14.59508 | – |
| 2026 Apr 14 17:57 | 2026 Apr 12 23:35:30 | 98.2477 | 0.00017 | 7.7358 | 80.0718 | 287.1174 | 14.59508 | – |
| 2026 Apr 13 17:57 | 2026 Apr 12 23:35:30 | 98.2477 | 0.00017 | 7.7358 | 80.0718 | 287.1174 | 14.59508 | – |
| 2026 Apr 12 17:57 | 2026 Apr 08 14:17:11 | 98.2482 | 0.00018 | 7.4451 | 82.8782 | 287.1174 | 14.59508 | – |
| 2026 Apr 11 17:57 | 2026 Apr 08 14:17:11 | 98.2482 | 0.00018 | 7.4451 | 82.8782 | 287.1174 | 14.59508 | – |
| 2026 Apr 10 17:58 | 2026 Apr 08 14:17:11 | 98.2482 | 0.00018 | 7.4451 | 82.8782 | 287.1174 | 14.59508 | – |
| 2026 Apr 09 18:01 | 2026 Apr 08 14:17:11 | 98.2482 | 0.00018 | 7.4451 | 82.8782 | 287.1174 | 14.59508 | – |
| 2026 Apr 08 17:57 | 2026 Apr 08 14:17:11 | 98.2482 | 0.00018 | 7.4451 | 82.8782 | 287.1174 | 14.59508 | – |
| 2026 Apr 07 17:57 | 2026 Apr 02 06:54:32 | 98.2486 | 0.00018 | 7.0270 | 87.3021 | 287.1174 | 14.59508 | – |